Estación Meteorológica Peña el Pijo (Robertgarden) [ 12/11/19 23:04:09 CET ]

Fecha Hora Presion(HPa) Temp (°C) Humedad % Rocio (°C) Viento ( m/s) Direccion Lluvia 1Hora(mm) Lluvia 24H(mm) LLuvia Total(mm)
2019-Nov-17 01:01:40 1004.700 2.5 73 -1.9         27.45
2019-Nov-17 02:01:55 1004.500 2.2 74 -2.0         27.45
2019-Nov-17 03:01:45 1004.000 1.3 75 -2.7         27.45
2019-Nov-17 04:04:19 1003.200 2.3 74 -1.9 2.8 NE     27.45
2019-Nov-17 05:01:43 1002.700 2.8 73 -1.6 3.4 NW     27.45
2019-Nov-17 06:01:45 1003.200 2.9 72 -1.6         27.45
2019-Nov-17 07:01:45 1003.000 2.8 72 -1.7         27.45
2019-Nov-17 08:01:42 1003.500 2.6 71 -2.1 2.3 N     27.45
2019-Nov-17 09:02:01 1004.200 3.9 68 -1.5         27.45
2019-Nov-17 10:01:53 1004.700 5.2 59 -2.2         27.45
2019-Nov-17 11:01:44 1005.100 6.4 57 -1.5         27.45
2019-Nov-17 12:01:41 1004.900 5.8 65 -0.3         27.45
2019-Nov-17 13:02:06 1004.000 9.3 63 2.6 1.1 NNW     27.45
2019-Nov-17 14:02:02 1003.200 9.8 65 3.5         27.45
2019-Nov-17 15:02:05 1002.600 8.6 67 2.8 2.0 WSW     27.45
2019-Nov-17 16:01:59 1002.100 7.9 72 3.2         27.45
2019-Nov-17 17:01:49 1001.600 7.2 77 3.4         27.45
2019-Nov-17 18:01:53 1001.600 7.3 78 3.7         27.45
2019-Nov-17 19:01:41 1000.900 7.6 79 4.2         27.45
2019-Nov-17 20:01:53 1000.100 7.9 79 4.5         27.45
2019-Nov-17 21:01:43 999.400 8.2 80 5.0         27.45
2019-Nov-17 22:01:54 999.500 8.0 81 5.0         27.45
2019-Nov-17 23:01:52 998.700 7.6 83 4.9 0.8 NNW 1.03 1.03 28.49

Temperatura Máxima:    Temperatura Mínima:
Presión Máxima:1005.100 Hpa    Presión Mínima:998.700 Hpa


Volver